createdAt,value
2022-10-18T00:00:04.884Z,8.92
2022-10-18T00:02:31.913Z,9.38
2022-10-18T00:04:59.085Z,9.45
2022-10-18T00:07:26.123Z,9.29
2022-10-18T00:09:53.109Z,9.11
2022-10-18T00:12:20.123Z,8.95
2022-10-18T00:14:50.985Z,8.82
2022-10-18T00:17:18.432Z,8.67
2022-10-18T00:19:46.896Z,8.47
2022-10-18T00:22:13.991Z,8.21
2022-10-18T00:24:40.989Z,8.03
2022-10-18T00:27:08.038Z,8.42
2022-10-18T00:29:35.024Z,8.77
2022-10-18T00:32:01.925Z,8.77
2022-10-18T00:34:29.004Z,8.64
2022-10-18T00:36:56.225Z,8.46
2022-10-18T00:39:23.270Z,8.26
2022-10-18T00:41:50.465Z,8.07
2022-10-18T00:44:17.466Z,7.88
2022-10-18T00:46:45.932Z,7.74
2022-10-18T00:49:15.626Z,7.62
2022-10-18T00:51:44.459Z,8.11
2022-10-18T00:54:12.925Z,8.54
2022-10-18T00:56:40.190Z,8.59
2022-10-18T00:59:07.822Z,8.46
2022-10-18T01:01:36.608Z,8.27
2022-10-18T01:04:03.775Z,8.09
2022-10-18T01:06:30.672Z,7.92
2022-10-18T01:09:13.955Z,7.82
2022-10-18T01:11:59.929Z,7.70
2022-10-18T01:15:03.543Z,7.68
2022-10-18T01:18:03.159Z,8.45
2022-10-18T01:20:49.070Z,8.93
2022-10-18T01:23:21.038Z,8.87
2022-10-18T01:26:15.801Z,8.67
2022-10-18T01:29:04.476Z,8.39
2022-10-18T01:31:33.464Z,8.16
2022-10-18T01:34:03.294Z,7.95
2022-10-18T01:36:40.684Z,7.73
2022-10-18T01:39:10.093Z,7.51
2022-10-18T01:41:37.517Z,7.29
2022-10-18T01:44:05.274Z,7.10
2022-10-18T01:46:32.235Z,7.47
2022-10-18T01:48:59.264Z,7.99
2022-10-18T01:51:26.723Z,8.06
2022-10-18T01:53:53.792Z,7.92
2022-10-18T01:56:31.773Z,7.72
2022-10-18T01:59:31.380Z,7.51
2022-10-18T02:02:40.213Z,7.30
2022-10-18T02:05:13.332Z,7.10
2022-10-18T02:07:51.878Z,6.95
2022-10-18T02:10:36.473Z,7.23
2022-10-18T02:13:03.419Z,7.75
2022-10-18T02:15:33.389Z,7.88
2022-10-18T02:18:00.384Z,7.80
2022-10-18T02:20:28.642Z,7.64
2022-10-18T02:22:56.261Z,7.44
2022-10-18T02:25:28.215Z,7.23
2022-10-18T02:27:55.318Z,7.04
2022-10-18T02:30:24.529Z,6.92
2022-10-18T02:32:57.025Z,6.94
2022-10-18T02:35:27.156Z,7.58
2022-10-18T02:37:54.269Z,7.88
2022-10-18T02:40:21.315Z,7.84
2022-10-18T02:42:56.201Z,7.65
2022-10-18T02:45:23.319Z,7.42
2022-10-18T02:47:50.344Z,7.18
2022-10-18T02:50:17.598Z,6.98
2022-10-18T02:52:44.643Z,6.77
2022-10-18T02:55:11.687Z,6.65
2022-10-18T02:57:38.567Z,7.01
2022-10-18T03:00:06.449Z,7.54
2022-10-18T03:02:33.343Z,7.66
2022-10-18T03:05:00.209Z,7.58
2022-10-18T03:07:27.124Z,7.40
2022-10-18T03:09:54.078Z,7.22
2022-10-18T03:12:21.012Z,7.01
2022-10-18T03:14:47.990Z,6.85
2022-10-18T03:17:14.915Z,6.72
2022-10-18T03:19:42.367Z,6.64
2022-10-18T03:22:09.414Z,7.11
2022-10-18T03:24:36.973Z,7.52
2022-10-18T03:27:03.982Z,7.55
2022-10-18T03:29:31.072Z,7.38
2022-10-18T03:31:58.112Z,7.25
2022-10-18T03:34:25.062Z,7.08
2022-10-18T03:36:52.105Z,6.88
2022-10-18T03:39:18.979Z,6.73
2022-10-18T03:41:45.995Z,6.60
2022-10-18T03:44:13.043Z,6.54
2022-10-18T03:46:39.931Z,7.07
2022-10-18T03:49:07.042Z,7.50
2022-10-18T03:51:34.082Z,7.53
2022-10-18T03:54:00.948Z,7.36
2022-10-18T03:56:27.991Z,7.15
2022-10-18T03:58:55.125Z,6.95
2022-10-18T04:01:22.229Z,6.74
2022-10-18T04:03:49.251Z,6.58
2022-10-18T04:06:16.341Z,6.45
2022-10-18T04:08:43.247Z,6.63
2022-10-18T04:11:11.275Z,7.19
2022-10-18T04:13:38.772Z,7.35
2022-10-18T04:16:05.986Z,7.23
2022-10-18T04:18:33.149Z,7.04
2022-10-18T04:21:00.296Z,6.83
2022-10-18T04:23:27.221Z,6.61
2022-10-18T04:25:54.128Z,6.43
2022-10-18T04:28:21.126Z,6.30
2022-10-18T04:30:54.518Z,6.25
2022-10-18T04:33:21.504Z,6.79
2022-10-18T04:35:51.512Z,7.21
2022-10-18T04:38:19.005Z,7.25
2022-10-18T04:40:46.860Z,7.10
2022-10-18T04:43:13.873Z,6.89
2022-10-18T04:45:40.817Z,6.70
2022-10-18T04:48:07.943Z,6.52
2022-10-18T04:50:34.850Z,6.37
2022-10-18T04:53:13.772Z,6.30
2022-10-18T04:55:46.866Z,6.86
2022-10-18T04:58:13.765Z,7.36
2022-10-18T05:00:40.922Z,7.38
2022-10-18T05:03:08.671Z,7.29
2022-10-18T05:05:49.737Z,7.11
2022-10-18T05:08:22.509Z,6.93
2022-10-18T05:10:49.517Z,6.76
2022-10-18T05:13:16.416Z,6.70
2022-10-18T05:15:43.395Z,6.64
2022-10-18T05:18:10.294Z,6.64
2022-10-18T05:20:37.340Z,7.24
2022-10-18T05:23:04.510Z,7.76
2022-10-18T05:25:31.362Z,7.87
2022-10-18T05:28:00.925Z,7.80
2022-10-18T05:30:30.379Z,7.65
2022-10-18T05:32:57.392Z,7.51
2022-10-18T05:35:24.282Z,7.39
2022-10-18T05:37:51.285Z,7.29
2022-10-18T05:56:04.232Z,7.14
2022-10-18T05:58:31.652Z,7.92
2022-10-18T06:01:02.455Z,8.33
2022-10-18T06:03:30.251Z,8.44
2022-10-18T06:06:15.446Z,8.47
2022-10-18T06:08:43.078Z,8.42
2022-10-18T06:11:14.940Z,8.46
2022-10-18T06:13:46.285Z,8.44
2022-10-18T06:16:15.345Z,8.41
2022-10-18T06:18:42.427Z,8.42
2022-10-18T06:21:12.259Z,8.48
2022-10-18T06:23:40.413Z,8.60
2022-10-18T06:26:09.717Z,9.28
2022-10-18T06:28:38.355Z,9.88
2022-10-18T06:31:07.698Z,10.15
2022-10-18T06:33:36.530Z,10.21
2022-10-18T06:36:09.984Z,10.18
2022-10-18T06:38:37.236Z,10.22
2022-10-18T06:41:04.884Z,10.26
2022-10-18T06:43:31.978Z,10.38
2022-10-18T06:46:01.360Z,10.49
2022-10-18T06:48:28.163Z,10.59
2022-10-18T06:50:59.253Z,10.73
2022-10-18T06:53:28.349Z,10.92
2022-10-18T06:56:03.995Z,11.11
2022-10-18T06:58:31.986Z,11.35
2022-10-18T07:00:59.004Z,11.59
2022-10-18T07:03:26.700Z,11.81
2022-10-18T07:05:54.012Z,12.04
2022-10-18T07:08:20.946Z,12.25
2022-10-18T07:10:52.569Z,12.45
2022-10-18T07:13:32.052Z,12.56
2022-10-18T07:16:15.791Z,12.69
2022-10-18T07:18:49.598Z,12.88
2022-10-18T07:21:21.450Z,13.07
2022-10-18T07:23:49.403Z,13.21
2022-10-18T07:26:25.069Z,13.29
2022-10-18T07:28:55.289Z,13.34
2022-10-18T07:31:22.441Z,13.46
2022-10-18T07:33:51.345Z,13.42
2022-10-18T07:36:20.630Z,13.62
2022-10-18T07:38:49.468Z,13.83
2022-10-18T07:41:16.469Z,13.89
2022-10-18T07:43:48.015Z,14.02
2022-10-18T07:46:17.032Z,14.16
2022-10-18T07:48:43.753Z,14.20
2022-10-18T07:51:10.812Z,14.37
2022-10-18T07:53:38.156Z,14.53
2022-10-18T07:56:09.709Z,14.75
2022-10-18T07:58:37.472Z,14.97
2022-10-18T08:01:05.367Z,15.03
2022-10-18T08:03:33.921Z,15.16
2022-10-18T08:06:01.687Z,15.34
2022-10-18T08:08:30.172Z,15.58
2022-10-18T08:11:14.624Z,15.80
2022-10-18T08:13:43.214Z,16.04
2022-10-18T08:16:12.807Z,16.19
2022-10-18T08:18:39.889Z,16.48
2022-10-18T08:21:08.451Z,16.78
2022-10-18T08:23:37.935Z,17.07
2022-10-18T08:26:15.565Z,17.22
2022-10-18T08:28:49.093Z,17.44
2022-10-18T08:31:25.717Z,17.61
2022-10-18T08:33:54.915Z,17.94
2022-10-18T08:36:21.872Z,18.03
2022-10-18T08:38:49.430Z,18.20
2022-10-18T08:41:32.955Z,18.32
2022-10-18T08:44:20.278Z,18.55
2022-10-18T08:46:49.066Z,18.85
2022-10-18T08:49:59.411Z,19.08
2022-10-18T08:52:49.822Z,19.25
2022-10-18T08:55:24.759Z,19.55
2022-10-18T08:57:51.952Z,19.65
2022-10-18T09:00:24.081Z,19.87
2022-10-18T09:03:03.281Z,19.93
2022-10-18T09:05:44.150Z,19.99
2022-10-18T09:08:15.326Z,20.14
2022-10-18T09:11:04.811Z,20.38
2022-10-18T09:13:48.476Z,20.55
2022-10-18T09:16:21.624Z,20.70
2022-10-18T09:18:57.886Z,20.81
2022-10-18T09:22:03.165Z,21.04
2022-10-18T09:24:50.277Z,20.81
2022-10-18T09:27:18.938Z,21.19
2022-10-18T09:30:11.078Z,21.45
2022-10-18T09:32:47.334Z,21.32
2022-10-18T09:35:47.197Z,21.45
2022-10-18T09:38:16.204Z,21.45
2022-10-18T09:40:54.149Z,21.60
2022-10-18T09:43:23.649Z,21.45
2022-10-18T09:45:51.157Z,21.17
2022-10-18T09:48:17.953Z,21.16
2022-10-18T09:51:06.942Z,21.34
2022-10-18T09:53:41.641Z,21.55
2022-10-18T09:56:19.880Z,21.75
2022-10-18T09:58:48.267Z,21.94
2022-10-18T10:01:28.888Z,21.97
2022-10-18T10:03:56.250Z,22.15
2022-10-18T10:06:28.108Z,22.04
2022-10-18T10:08:59.470Z,22.27
2022-10-18T10:11:34.207Z,22.27
2022-10-18T10:14:14.162Z,22.16
2022-10-18T10:16:50.984Z,22.31
2022-10-18T10:19:27.380Z,22.38
2022-10-18T10:22:03.334Z,22.28
2022-10-18T10:24:50.571Z,22.22
2022-10-18T10:27:29.617Z,22.59
2022-10-18T10:30:05.760Z,22.80
2022-10-18T10:32:47.878Z,22.95
2022-10-18T10:35:35.280Z,23.06
2022-10-18T10:38:21.214Z,22.89
2022-10-18T10:40:51.236Z,23.15
2022-10-18T10:43:40.000Z,22.98
2022-10-18T10:46:18.314Z,23.13
2022-10-18T10:49:04.482Z,23.25
2022-10-18T10:51:41.117Z,23.22
2022-10-18T10:54:15.031Z,23.19
2022-10-18T10:56:54.724Z,23.04
2022-10-18T10:59:22.452Z,22.99
2022-10-18T11:01:50.818Z,23.02
2022-10-18T11:04:28.758Z,23.11
2022-10-18T11:07:08.438Z,23.27
2022-10-18T11:09:50.300Z,23.12
2022-10-18T11:12:22.573Z,22.93
2022-10-18T11:15:09.389Z,23.05
2022-10-18T11:18:10.217Z,23.30
2022-10-18T11:20:44.604Z,23.33
2022-10-18T11:23:12.968Z,23.41
2022-10-18T11:25:42.901Z,23.53
2022-10-18T11:28:19.113Z,23.56
2022-10-18T11:31:02.129Z,23.51
2022-10-18T11:34:03.491Z,23.41
2022-10-18T11:36:30.569Z,23.42
2022-10-18T11:39:07.446Z,23.17
2022-10-18T11:41:41.594Z,23.24
2022-10-18T11:44:32.186Z,23.26
2022-10-18T11:47:20.311Z,22.96
2022-10-18T11:49:59.751Z,22.75
2022-10-18T11:52:38.751Z,22.67
2022-10-18T11:55:44.960Z,22.73
2022-10-18T11:58:18.054Z,22.65
2022-10-18T12:00:48.894Z,22.75
2022-10-18T12:03:23.820Z,22.80
2022-10-18T12:05:51.619Z,22.76
2022-10-18T12:08:32.900Z,22.52
2022-10-18T12:11:06.385Z,22.49
2022-10-18T12:13:51.936Z,22.45
2022-10-18T12:16:33.536Z,22.41
2022-10-18T12:19:12.781Z,22.22
2022-10-18T12:21:39.657Z,22.18
2022-10-18T12:24:18.217Z,22.17
2022-10-18T12:26:48.034Z,22.23
2022-10-18T12:29:39.692Z,22.31
2022-10-18T12:32:11.508Z,22.27
2022-10-18T12:34:44.171Z,22.27
2022-10-18T12:37:29.393Z,22.35
2022-10-18T12:40:18.466Z,22.32
2022-10-18T12:42:47.500Z,22.26
2022-10-18T12:45:24.462Z,22.13
2022-10-18T12:47:51.203Z,22.05
2022-10-18T12:50:27.281Z,22.08
2022-10-18T12:53:23.704Z,22.09
2022-10-18T12:55:51.130Z,22.07
2022-10-18T12:58:29.586Z,22.08
2022-10-18T13:01:04.482Z,22.10
2022-10-18T13:03:54.857Z,22.11
2022-10-18T13:06:24.418Z,21.96
2022-10-18T13:09:15.477Z,21.82
2022-10-18T13:11:42.469Z,21.70
2022-10-18T13:14:24.719Z,21.57
2022-10-18T13:17:00.005Z,21.59
2022-10-18T13:20:24.927Z,21.54
2022-10-18T13:23:21.031Z,21.49
2022-10-18T13:26:01.355Z,21.51
2022-10-18T13:28:52.610Z,21.58
2022-10-18T13:31:23.668Z,21.55
2022-10-18T13:33:50.628Z,21.45
2022-10-18T13:36:22.732Z,21.43
2022-10-18T13:38:55.001Z,21.47
2022-10-18T13:41:27.546Z,21.37
2022-10-18T13:44:02.859Z,21.25
2022-10-18T13:46:31.973Z,21.15
2022-10-18T13:49:05.081Z,21.13
2022-10-18T13:51:56.786Z,21.14
2022-10-18T13:54:38.579Z,20.99
2022-10-18T13:57:39.361Z,20.88
2022-10-18T14:00:28.810Z,20.72
2022-10-18T14:03:31.724Z,20.61
2022-10-18T14:06:08.280Z,20.41
2022-10-18T14:08:41.692Z,20.35
2022-10-18T14:11:45.930Z,20.32
2022-10-18T14:14:36.109Z,20.30
2022-10-18T14:17:34.493Z,20.22
2022-10-18T14:20:23.787Z,20.18
2022-10-18T14:22:55.731Z,20.10
2022-10-18T14:25:27.096Z,20.09
2022-10-18T14:28:06.852Z,20.07
2022-10-18T14:30:34.662Z,20.01
2022-10-18T14:33:01.461Z,19.96
2022-10-18T14:35:33.206Z,19.88
2022-10-18T14:38:00.535Z,19.82
2022-10-18T14:40:38.450Z,19.74
2022-10-18T14:43:08.558Z,19.69
2022-10-18T14:45:35.420Z,19.63
2022-10-18T14:48:16.886Z,19.54
2022-10-18T14:50:45.324Z,19.44
2022-10-18T15:17:59.860Z,17.51
2022-10-18T15:20:31.638Z,17.34
2022-10-18T15:23:20.849Z,17.21
2022-10-18T15:25:47.953Z,17.07
2022-10-18T15:28:31.234Z,16.94
2022-10-18T15:30:58.434Z,16.79
2022-10-18T15:33:26.821Z,16.64
2022-10-18T15:35:53.957Z,16.52
2022-10-18T15:38:31.304Z,16.41
2022-10-18T15:40:58.113Z,16.32
2022-10-18T15:43:25.348Z,16.27
2022-10-18T15:46:05.037Z,16.21
2022-10-18T15:48:38.688Z,16.13
2022-10-18T15:51:26.217Z,16.04
2022-10-18T15:53:53.678Z,15.96
2022-10-18T15:56:28.571Z,15.90
2022-10-18T15:58:58.891Z,15.86
2022-10-18T16:01:37.380Z,15.86
2022-10-18T16:04:08.568Z,15.86
2022-10-18T16:06:38.117Z,15.82
2022-10-18T16:09:06.169Z,15.72
2022-10-18T16:11:36.186Z,15.46
2022-10-18T16:14:05.394Z,15.29
2022-10-18T16:16:32.434Z,15.19
2022-10-18T16:18:59.917Z,15.06
2022-10-18T16:21:26.929Z,14.77
2022-10-18T16:23:54.197Z,14.60
2022-10-18T16:26:21.867Z,14.60
2022-10-18T16:28:50.693Z,14.65
2022-10-18T16:31:22.294Z,14.62
2022-10-18T16:41:26.764Z,13.86
2022-10-18T16:43:53.809Z,14.29
2022-10-18T16:46:27.618Z,14.62
2022-10-18T16:48:55.302Z,14.58
2022-10-18T16:51:22.634Z,14.41
2022-10-18T16:53:49.784Z,14.30
2022-10-18T16:56:18.473Z,14.26
2022-10-18T16:58:45.725Z,14.28
2022-10-18T17:01:14.086Z,14.29
2022-10-18T17:03:41.359Z,14.26
2022-10-18T17:06:31.337Z,14.20
2022-10-18T17:08:58.381Z,14.10
2022-10-18T17:11:26.907Z,14.02
2022-10-18T17:13:54.331Z,13.91
2022-10-18T17:19:02.345Z,13.77
2022-10-18T17:21:29.409Z,14.21
2022-10-18T17:24:06.015Z,14.53
2022-10-18T17:26:33.120Z,14.50
2022-10-18T17:29:05.037Z,14.38
2022-10-18T17:31:32.655Z,14.22
2022-10-18T17:34:02.136Z,14.11
2022-10-18T17:36:32.802Z,13.99
2022-10-18T17:39:00.226Z,13.88
2022-10-18T17:41:27.280Z,13.76
2022-10-18T17:43:54.240Z,13.65
2022-10-18T17:46:21.155Z,13.58
2022-10-18T17:48:48.139Z,13.52
2022-10-18T17:51:16.492Z,13.47
2022-10-18T17:53:43.538Z,13.45
2022-10-18T17:56:10.693Z,13.89
2022-10-18T17:58:37.950Z,14.16
2022-10-18T18:01:19.122Z,14.21
2022-10-18T18:03:47.926Z,14.06
2022-10-18T18:06:18.875Z,13.86
2022-10-18T18:08:46.126Z,13.71
2022-10-18T18:11:13.467Z,13.57
2022-10-18T18:13:40.598Z,13.50
2022-10-18T18:16:19.012Z,13.39
2022-10-18T18:18:46.526Z,13.31
2022-10-18T18:21:13.552Z,13.22
2022-10-18T18:23:40.870Z,13.12
2022-10-18T18:26:07.928Z,13.03
2022-10-18T18:28:36.377Z,12.95
2022-10-18T18:31:07.588Z,13.39
2022-10-18T18:33:35.620Z,13.91
2022-10-18T18:36:05.119Z,14.00
2022-10-18T18:38:33.609Z,13.93
2022-10-18T18:41:03.931Z,13.73
2022-10-18T18:43:31.071Z,13.53
2022-10-18T18:45:58.345Z,13.34
2022-10-18T18:48:27.332Z,13.23
2022-10-18T18:50:54.718Z,13.08
2022-10-18T18:53:23.357Z,12.89
2022-10-18T18:55:53.066Z,12.75
2022-10-18T18:58:20.222Z,12.67
2022-10-18T19:00:47.335Z,12.59
2022-10-18T19:03:14.521Z,13.04
2022-10-18T19:05:41.678Z,13.45
2022-10-18T19:08:08.713Z,13.50
2022-10-18T19:10:35.690Z,13.35
2022-10-18T19:13:02.708Z,13.15
2022-10-18T19:15:29.703Z,12.98
2022-10-18T19:17:56.734Z,12.84
2022-10-18T19:20:23.649Z,12.69
2022-10-18T19:22:50.540Z,12.59
2022-10-18T19:25:17.599Z,12.48
2022-10-18T19:27:44.646Z,12.42
2022-10-18T19:30:11.604Z,12.38
2022-10-18T19:32:38.413Z,12.86
2022-10-18T19:35:05.444Z,13.37
2022-10-18T19:37:32.810Z,13.45
2022-10-18T19:40:00.008Z,13.37
2022-10-18T19:42:30.310Z,13.20
2022-10-18T19:44:58.258Z,13.06
2022-10-18T19:47:25.212Z,12.92
2022-10-18T19:49:53.843Z,12.82
2022-10-18T19:52:20.776Z,12.67
2022-10-18T19:54:48.892Z,12.59
2022-10-18T19:57:15.807Z,12.52
2022-10-18T19:59:42.839Z,12.48
2022-10-18T20:02:13.370Z,12.46
2022-10-18T20:04:40.194Z,12.42
2022-10-18T20:07:07.141Z,12.36
2022-10-18T20:09:34.144Z,12.36
2022-10-18T20:12:01.218Z,12.79
2022-10-18T20:14:28.225Z,13.22
2022-10-18T20:16:55.158Z,13.27
2022-10-18T20:19:22.074Z,13.19
2022-10-18T20:21:49.051Z,13.07
2022-10-18T20:24:15.949Z,12.95
2022-10-18T20:26:43.770Z,12.77
2022-10-18T20:29:10.891Z,12.69
2022-10-18T20:31:39.219Z,12.60
2022-10-18T20:34:08.290Z,12.45
2022-10-18T20:36:35.419Z,12.37
2022-10-18T20:39:02.491Z,12.28
2022-10-18T20:41:38.106Z,12.26
2022-10-18T20:44:07.135Z,12.19
2022-10-18T20:46:35.460Z,12.12
2022-10-18T20:49:02.677Z,12.11
2022-10-18T20:51:29.573Z,12.08
2022-10-18T20:53:56.500Z,12.50
2022-10-18T20:56:25.296Z,12.81
2022-10-18T20:58:53.416Z,12.82
2022-10-18T21:01:22.219Z,12.70
2022-10-18T21:03:49.924Z,12.58
2022-10-18T21:06:18.788Z,12.48
2022-10-18T21:08:45.919Z,12.35
2022-10-18T21:11:13.161Z,12.23
2022-10-18T21:13:43.040Z,12.13
2022-10-18T21:16:10.125Z,12.06
2022-10-18T21:18:37.325Z,11.97
2022-10-18T21:21:14.757Z,11.91
2022-10-18T21:23:42.561Z,11.86
2022-10-18T21:26:16.785Z,11.84
2022-10-18T21:28:43.995Z,11.77
2022-10-18T21:31:18.947Z,11.74
2022-10-18T21:33:46.024Z,12.19
2022-10-18T21:36:13.396Z,12.54
2022-10-18T21:38:40.410Z,12.54
2022-10-18T21:41:09.471Z,12.46
2022-10-18T21:43:41.252Z,12.29
2022-10-18T21:46:08.414Z,12.18
2022-10-18T21:48:35.298Z,12.07
2022-10-18T21:51:06.316Z,11.87
2022-10-18T21:53:33.459Z,11.76
2022-10-18T21:56:07.002Z,11.67
2022-10-18T21:58:34.519Z,11.60
2022-10-18T22:01:01.614Z,11.52
2022-10-18T22:03:28.464Z,11.48
2022-10-18T22:06:01.400Z,11.94
2022-10-18T22:08:29.857Z,12.33
2022-10-18T22:10:57.251Z,12.40
2022-10-18T22:13:24.334Z,12.25
2022-10-18T22:15:51.264Z,12.07
2022-10-18T22:18:18.319Z,11.92
2022-10-18T22:20:58.910Z,11.81
2022-10-18T22:23:34.367Z,11.68
2022-10-18T22:26:05.655Z,11.56
2022-10-18T22:28:32.781Z,11.44
2022-10-18T22:30:59.730Z,11.34
2022-10-18T22:33:26.760Z,11.27
2022-10-18T22:35:53.796Z,11.79
2022-10-18T22:38:20.822Z,12.34
2022-10-18T22:40:47.912Z,12.44
2022-10-18T22:43:14.843Z,12.30
2022-10-18T22:45:41.898Z,12.10
2022-10-18T22:48:08.751Z,11.93
2022-10-18T22:50:35.590Z,11.80
2022-10-18T22:53:02.401Z,11.65
2022-10-18T22:55:29.259Z,11.50
2022-10-18T22:57:56.442Z,11.38
2022-10-18T23:00:23.431Z,11.34
2022-10-18T23:02:50.471Z,11.87
2022-10-18T23:05:17.412Z,12.32
2022-10-18T23:07:48.195Z,12.36
2022-10-18T23:10:15.418Z,12.20
2022-10-18T23:12:42.462Z,12.03
2022-10-18T23:15:09.783Z,11.86
2022-10-18T23:17:37.133Z,11.72
2022-10-18T23:20:05.619Z,11.60
2022-10-18T23:22:32.826Z,11.49
2022-10-18T23:24:59.896Z,11.40
2022-10-18T23:27:28.491Z,11.87
2022-10-18T23:29:55.304Z,12.35
2022-10-18T23:32:22.208Z,12.36
2022-10-18T23:34:49.192Z,12.19
2022-10-18T23:37:16.103Z,12.07
2022-10-18T23:39:42.969Z,11.91
2022-10-18T23:42:09.858Z,11.73
2022-10-18T23:44:36.723Z,11.60
2022-10-18T23:47:03.718Z,11.53
2022-10-18T23:49:30.688Z,11.95
2022-10-18T23:51:57.511Z,12.39
2022-10-18T23:54:24.444Z,12.41
2022-10-18T23:56:51.370Z,12.28
2022-10-18T23:59:18.315Z,12.10
